sensor_id;sensor_type;location;lat;lon;timestamp;P1;durP1;ratioP1;P2;durP2;ratioP2
70744;SDS011;59284;31.390;34.904;2022-07-29T00:05:19;8.73;;;4.93;;
70744;SDS011;59284;31.390;34.904;2022-07-29T00:07:59;10.27;;;5.07;;
70744;SDS011;59284;31.390;34.904;2022-07-29T00:10:35;9.88;;;5.18;;
70744;SDS011;59284;31.390;34.904;2022-07-29T00:13:42;9.33;;;4.20;;
70744;SDS011;59284;31.390;34.904;2022-07-29T00:18:51;7.20;;;4.45;;
70744;SDS011;59284;31.390;34.904;2022-07-29T00:39:33;9.83;;;3.40;;
70744;SDS011;59284;31.390;34.904;2022-07-29T00:42:01;4.97;;;3.17;;
70744;SDS011;59284;31.390;34.904;2022-07-29T00:44:52;7.63;;;3.45;;
70744;SDS011;59284;31.390;34.904;2022-07-29T00:47:43;6.43;;;2.83;;
70744;SDS011;59284;31.390;34.904;2022-07-29T00:50:45;8.90;;;3.05;;
70744;SDS011;59284;31.390;34.904;2022-07-29T00:53:36;5.50;;;3.40;;
70744;SDS011;59284;31.390;34.904;2022-07-29T00:56:05;5.63;;;3.13;;
70744;SDS011;59284;31.390;34.904;2022-07-29T00:58:33;10.82;;;3.40;;
70744;SDS011;59284;31.390;34.904;2022-07-29T01:01:24;9.82;;;3.15;;
70744;SDS011;59284;31.390;34.904;2022-07-29T01:10:31;4.60;;;3.08;;
70744;SDS011;59284;31.390;34.904;2022-07-29T01:49:10;7.27;;;3.20;;
70744;SDS011;59284;31.390;34.904;2022-07-29T01:52:31;6.30;;;3.03;;
70744;SDS011;59284;31.390;34.904;2022-07-29T01:55:52;7.45;;;3.25;;
70744;SDS011;59284;31.390;34.904;2022-07-29T01:58:31;6.68;;;3.30;;
70744;SDS011;59284;31.390;34.904;2022-07-29T02:01:01;6.13;;;3.20;;
70744;SDS011;59284;31.390;34.904;2022-07-29T02:03:49;7.60;;;3.60;;
70744;SDS011;59284;31.390;34.904;2022-07-29T02:24:35;10.00;;;4.10;;
70744;SDS011;59284;31.390;34.904;2022-07-29T02:27:26;7.53;;;3.88;;
70744;SDS011;59284;31.390;34.904;2022-07-29T02:29:54;9.50;;;3.97;;
70744;SDS011;59284;31.390;34.904;2022-07-29T02:32:24;5.90;;;4.25;;
70744;SDS011;59284;31.390;34.904;2022-07-29T02:35:09;5.47;;;4.20;;
70744;SDS011;59284;31.390;34.904;2022-07-29T02:38:16;10.15;;;4.10;;
70744;SDS011;59284;31.390;34.904;2022-07-29T02:41:16;9.88;;;4.13;;
70744;SDS011;59284;31.390;34.904;2022-07-29T02:44:09;8.33;;;4.17;;
70744;SDS011;59284;31.390;34.904;2022-07-29T02:59:51;10.40;;;5.05;;
70744;SDS011;59284;31.390;34.904;2022-07-29T03:02:22;7.28;;;5.07;;
70744;SDS011;59284;31.390;34.904;2022-07-29T03:05:15;12.93;;;5.88;;
70744;SDS011;59284;31.390;34.904;2022-07-29T03:08:13;17.17;;;7.18;;
70744;SDS011;59284;31.390;34.904;2022-07-29T03:29:35;26.42;;;9.75;;
70744;SDS011;59284;31.390;34.904;2022-07-29T03:32:04;19.38;;;10.45;;
70744;SDS011;59284;31.390;34.904;2022-07-29T03:34:31;18.38;;;12.02;;
70744;SDS011;59284;31.390;34.904;2022-07-29T03:37:02;15.93;;;10.03;;
70744;SDS011;59284;31.390;34.904;2022-07-29T03:45:15;18.42;;;10.57;;
70744;SDS011;59284;31.390;34.904;2022-07-29T03:47:45;17.67;;;10.98;;
70744;SDS011;59284;31.390;34.904;2022-07-29T03:50:50;19.67;;;9.50;;
70744;SDS011;59284;31.390;34.904;2022-07-29T03:53:17;15.70;;;9.68;;
70744;SDS011;59284;31.390;34.904;2022-07-29T03:55:45;20.42;;;9.57;;
70744;SDS011;59284;31.390;34.904;2022-07-29T03:58:16;15.65;;;9.38;;
70744;SDS011;59284;31.390;34.904;2022-07-29T04:00:43;17.42;;;9.20;;
70744;SDS011;59284;31.390;34.904;2022-07-29T04:03:10;20.03;;;8.47;;
70744;SDS011;59284;31.390;34.904;2022-07-29T04:05:37;10.80;;;8.80;;
70744;SDS011;59284;31.390;34.904;2022-07-29T04:08:03;18.25;;;8.48;;
70744;SDS011;59284;31.390;34.904;2022-07-29T04:10:29;16.20;;;8.38;;
70744;SDS011;59284;31.390;34.904;2022-07-29T04:12:55;18.63;;;8.73;;
70744;SDS011;59284;31.390;34.904;2022-07-29T04:15:23;11.68;;;7.30;;
70744;SDS011;59284;31.390;34.904;2022-07-29T04:17:49;17.85;;;7.47;;
70744;SDS011;59284;31.390;34.904;2022-07-29T04:20:15;14.03;;;8.07;;
70744;SDS011;59284;31.390;34.904;2022-07-29T04:22:40;18.48;;;10.18;;
70744;SDS011;59284;31.390;34.904;2022-07-29T04:25:07;25.30;;;11.27;;
70744;SDS011;59284;31.390;34.904;2022-07-29T04:27:33;27.63;;;14.05;;
70744;SDS011;59284;31.390;34.904;2022-07-29T04:30:00;27.45;;;14.95;;
70744;SDS011;59284;31.390;34.904;2022-07-29T04:32:26;27.07;;;14.90;;
70744;SDS011;59284;31.390;34.904;2022-07-29T04:34:52;29.87;;;15.63;;
70744;SDS011;59284;31.390;34.904;2022-07-29T04:37:18;33.28;;;15.88;;
70744;SDS011;59284;31.390;34.904;2022-07-29T04:39:43;38.85;;;16.70;;
70744;SDS011;59284;31.390;34.904;2022-07-29T04:42:09;33.57;;;16.03;;
70744;SDS011;59284;31.390;34.904;2022-07-29T04:44:35;27.92;;;14.65;;
70744;SDS011;59284;31.390;34.904;2022-07-29T04:47:03;29.90;;;15.13;;
70744;SDS011;59284;31.390;34.904;2022-07-29T04:49:30;33.28;;;16.40;;
70744;SDS011;59284;31.390;34.904;2022-07-29T04:51:55;36.13;;;16.40;;
70744;SDS011;59284;31.390;34.904;2022-07-29T04:54:21;32.47;;;14.98;;
70744;SDS011;59284;31.390;34.904;2022-07-29T04:56:48;39.57;;;16.43;;
70744;SDS011;59284;31.390;34.904;2022-07-29T04:59:14;32.92;;;16.52;;
70744;SDS011;59284;31.390;34.904;2022-07-29T05:01:40;28.77;;;15.50;;
70744;SDS011;59284;31.390;34.904;2022-07-29T05:04:06;34.50;;;15.73;;
70744;SDS011;59284;31.390;34.904;2022-07-29T05:06:32;30.75;;;14.73;;
70744;SDS011;59284;31.390;34.904;2022-07-29T05:08:59;30.53;;;14.40;;
70744;SDS011;59284;31.390;34.904;2022-07-29T05:11:24;33.50;;;14.98;;
70744;SDS011;59284;31.390;34.904;2022-07-29T05:13:50;28.80;;;13.50;;
70744;SDS011;59284;31.390;34.904;2022-07-29T05:16:16;26.17;;;12.98;;
70744;SDS011;59284;31.390;34.904;2022-07-29T05:18:43;22.58;;;10.93;;
70744;SDS011;59284;31.390;34.904;2022-07-29T05:21:09;22.55;;;10.40;;
70744;SDS011;59284;31.390;34.904;2022-07-29T05:23:34;22.77;;;10.47;;
70744;SDS011;59284;31.390;34.904;2022-07-29T05:26:00;19.88;;;10.27;;
70744;SDS011;59284;31.390;34.904;2022-07-29T05:28:26;22.25;;;11.38;;
70744;SDS011;59284;31.390;34.904;2022-07-29T05:30:53;23.23;;;10.07;;
70744;SDS011;59284;31.390;34.904;2022-07-29T05:33:19;19.40;;;9.45;;
70744;SDS011;59284;31.390;34.904;2022-07-29T05:35:45;20.08;;;9.38;;
70744;SDS011;59284;31.390;34.904;2022-07-29T05:38:14;19.80;;;10.50;;
70744;SDS011;59284;31.390;34.904;2022-07-29T05:40:39;20.30;;;9.10;;
70744;SDS011;59284;31.390;34.904;2022-07-29T05:43:05;15.48;;;7.88;;
70744;SDS011;59284;31.390;34.904;2022-07-29T05:45:31;17.97;;;8.70;;
70744;SDS011;59284;31.390;34.904;2022-07-29T05:47:57;19.00;;;7.95;;
70744;SDS011;59284;31.390;34.904;2022-07-29T05:50:22;16.73;;;8.05;;
70744;SDS011;59284;31.390;34.904;2022-07-29T05:52:49;17.00;;;9.60;;
70744;SDS011;59284;31.390;34.904;2022-07-29T05:55:15;16.73;;;8.85;;
70744;SDS011;59284;31.390;34.904;2022-07-29T05:57:40;16.90;;;7.22;;
70744;SDS011;59284;31.390;34.904;2022-07-29T06:00:08;14.30;;;6.70;;
70744;SDS011;59284;31.390;34.904;2022-07-29T06:02:34;15.05;;;7.35;;
70744;SDS011;59284;31.390;34.904;2022-07-29T06:05:00;20.13;;;7.63;;
70744;SDS011;59284;31.390;34.904;2022-07-29T06:07:27;13.13;;;7.40;;
70744;SDS011;59284;31.390;34.904;2022-07-29T06:09:53;12.52;;;6.72;;
70744;SDS011;59284;31.390;34.904;2022-07-29T06:12:19;11.07;;;7.13;;
70744;SDS011;59284;31.390;34.904;2022-07-29T06:14:44;15.18;;;7.10;;
70744;SDS011;59284;31.390;34.904;2022-07-29T06:17:10;11.45;;;6.55;;
70744;SDS011;59284;31.390;34.904;2022-07-29T06:19:37;12.27;;;6.43;;
70744;SDS011;59284;31.390;34.904;2022-07-29T06:22:03;13.85;;;6.65;;
70744;SDS011;59284;31.390;34.904;2022-07-29T06:24:29;10.75;;;5.65;;
70744;SDS011;59284;31.390;34.904;2022-07-29T06:26:55;9.35;;;5.65;;
70744;SDS011;59284;31.390;34.904;2022-07-29T06:29:21;7.85;;;4.97;;
70744;SDS011;59284;31.390;34.904;2022-07-29T06:31:46;9.90;;;5.17;;
70744;SDS011;59284;31.390;34.904;2022-07-29T06:34:13;9.57;;;5.20;;
70744;SDS011;59284;31.390;34.904;2022-07-29T06:36:38;10.23;;;5.20;;
70744;SDS011;59284;31.390;34.904;2022-07-29T06:39:06;10.80;;;5.78;;
70744;SDS011;59284;31.390;34.904;2022-07-29T06:41:33;8.25;;;4.95;;
70744;SDS011;59284;31.390;34.904;2022-07-29T06:43:59;9.57;;;4.88;;
70744;SDS011;59284;31.390;34.904;2022-07-29T06:46:28;8.17;;;4.50;;
70744;SDS011;59284;31.390;34.904;2022-07-29T06:48:54;8.32;;;4.20;;
70744;SDS011;59284;31.390;34.904;2022-07-29T06:51:20;9.10;;;3.70;;
70744;SDS011;59284;31.390;34.904;2022-07-29T06:53:46;9.02;;;3.88;;
70744;SDS011;59284;31.390;34.904;2022-07-29T06:56:12;7.10;;;3.88;;
70744;SDS011;59284;31.390;34.904;2022-07-29T06:58:38;7.68;;;3.67;;
70744;SDS011;59284;31.390;34.904;2022-07-29T07:01:05;10.93;;;3.72;;
70744;SDS011;59284;31.390;34.904;2022-07-29T07:03:32;8.73;;;3.80;;
70744;SDS011;59284;31.390;34.904;2022-07-29T07:05:58;7.78;;;3.33;;
70744;SDS011;59284;31.390;34.904;2022-07-29T07:08:25;6.40;;;3.53;;
70744;SDS011;59284;31.390;34.904;2022-07-29T07:10:52;7.15;;;3.35;;
70744;SDS011;59284;31.390;34.904;2022-07-29T07:13:18;8.90;;;3.22;;
70744;SDS011;59284;31.390;34.904;2022-07-29T07:15:45;6.33;;;3.30;;
70744;SDS011;59284;31.390;34.904;2022-07-29T07:18:13;10.95;;;3.30;;
70744;SDS011;59284;31.390;34.904;2022-07-29T07:20:40;8.23;;;3.33;;
70744;SDS011;59284;31.390;34.904;2022-07-29T07:23:06;6.13;;;3.05;;
70744;SDS011;59284;31.390;34.904;2022-07-29T07:25:32;6.68;;;3.10;;
70744;SDS011;59284;31.390;34.904;2022-07-29T07:27:58;5.83;;;3.07;;
70744;SDS011;59284;31.390;34.904;2022-07-29T07:30:24;6.78;;;3.40;;
70744;SDS011;59284;31.390;34.904;2022-07-29T07:32:49;5.93;;;3.30;;
70744;SDS011;59284;31.390;34.904;2022-07-29T07:35:15;14.90;;;3.60;;
70744;SDS011;59284;31.390;34.904;2022-07-29T07:37:41;6.97;;;3.55;;
70744;SDS011;59284;31.390;34.904;2022-07-29T07:40:08;4.80;;;3.25;;
70744;SDS011;59284;31.390;34.904;2022-07-29T07:42:38;8.00;;;3.47;;
70744;SDS011;59284;31.390;34.904;2022-07-29T07:45:05;7.05;;;3.20;;
70744;SDS011;59284;31.390;34.904;2022-07-29T07:47:34;8.82;;;3.65;;
70744;SDS011;59284;31.390;34.904;2022-07-29T07:50:00;7.38;;;3.50;;
70744;SDS011;59284;31.390;34.904;2022-07-29T07:52:27;6.35;;;3.42;;
70744;SDS011;59284;31.390;34.904;2022-07-29T07:54:53;6.37;;;3.47;;
70744;SDS011;59284;31.390;34.904;2022-07-29T07:57:19;6.55;;;3.55;;
70744;SDS011;59284;31.390;34.904;2022-07-29T07:59:44;7.30;;;3.87;;
70744;SDS011;59284;31.390;34.904;2022-07-29T08:02:10;8.95;;;3.45;;
70744;SDS011;59284;31.390;34.904;2022-07-29T08:04:36;5.40;;;3.20;;
70744;SDS011;59284;31.390;34.904;2022-07-29T08:07:02;8.65;;;3.67;;
70744;SDS011;59284;31.390;34.904;2022-07-29T08:09:28;5.55;;;2.92;;
70744;SDS011;59284;31.390;34.904;2022-07-29T08:11:54;8.23;;;3.20;;
70744;SDS011;59284;31.390;34.904;2022-07-29T08:14:21;5.67;;;3.37;;
70744;SDS011;59284;31.390;34.904;2022-07-29T08:16:46;4.82;;;3.20;;
70744;SDS011;59284;31.390;34.904;2022-07-29T08:19:13;6.32;;;3.47;;
70744;SDS011;59284;31.390;34.904;2022-07-29T08:21:39;5.97;;;2.92;;
70744;SDS011;59284;31.390;34.904;2022-07-29T08:24:05;9.20;;;3.60;;
70744;SDS011;59284;31.390;34.904;2022-07-29T08:26:49;6.97;;;3.00;;
70744;SDS011;59284;31.390;34.904;2022-07-29T08:29:15;5.72;;;3.20;;
70744;SDS011;59284;31.390;34.904;2022-07-29T08:31:41;11.05;;;3.55;;
70744;SDS011;59284;31.390;34.904;2022-07-29T08:34:08;4.72;;;3.20;;
70744;SDS011;59284;31.390;34.904;2022-07-29T08:36:35;6.00;;;3.23;;
70744;SDS011;59284;31.390;34.904;2022-07-29T08:39:11;8.60;;;3.42;;
70744;SDS011;59284;31.390;34.904;2022-07-29T08:41:38;8.55;;;3.40;;
70744;SDS011;59284;31.390;34.904;2022-07-29T08:44:04;6.17;;;3.33;;
70744;SDS011;59284;31.390;34.904;2022-07-29T08:46:30;7.90;;;3.65;;
70744;SDS011;59284;31.390;34.904;2022-07-29T08:48:55;6.85;;;3.13;;
70744;SDS011;59284;31.390;34.904;2022-07-29T08:51:21;8.17;;;3.20;;
70744;SDS011;59284;31.390;34.904;2022-07-29T08:53:48;5.50;;;3.25;;
70744;SDS011;59284;31.390;34.904;2022-07-29T08:56:15;6.78;;;3.08;;
70744;SDS011;59284;31.390;34.904;2022-07-29T08:58:43;8.13;;;3.63;;
70744;SDS011;59284;31.390;34.904;2022-07-29T09:01:10;7.47;;;3.20;;
70744;SDS011;59284;31.390;34.904;2022-07-29T09:03:39;6.75;;;3.20;;
70744;SDS011;59284;31.390;34.904;2022-07-29T09:06:15;8.23;;;3.60;;
70744;SDS011;59284;31.390;34.904;2022-07-29T09:08:44;7.50;;;3.00;;
70744;SDS011;59284;31.390;34.904;2022-07-29T09:11:11;4.78;;;2.88;;
70744;SDS011;59284;31.390;34.904;2022-07-29T09:13:38;7.77;;;3.30;;
70744;SDS011;59284;31.390;34.904;2022-07-29T09:16:03;8.85;;;2.95;;
70744;SDS011;59284;31.390;34.904;2022-07-29T09:18:33;9.75;;;3.35;;
70744;SDS011;59284;31.390;34.904;2022-07-29T09:21:04;6.55;;;3.00;;
70744;SDS011;59284;31.390;34.904;2022-07-29T09:26:35;6.95;;;3.40;;
70744;SDS011;59284;31.390;34.904;2022-07-29T09:29:09;5.43;;;3.70;;
70744;SDS011;59284;31.390;34.904;2022-07-29T09:31:37;5.47;;;3.10;;
70744;SDS011;59284;31.390;34.904;2022-07-29T09:34:04;5.45;;;3.20;;
70744;SDS011;59284;31.390;34.904;2022-07-29T09:36:42;6.50;;;3.47;;
70744;SDS011;59284;31.390;34.904;2022-07-29T09:39:09;8.45;;;3.65;;
70744;SDS011;59284;31.390;34.904;2022-07-29T09:41:45;5.55;;;3.25;;
70744;SDS011;59284;31.390;34.904;2022-07-29T09:44:12;9.85;;;3.60;;
70744;SDS011;59284;31.390;34.904;2022-07-29T09:49:13;6.13;;;3.30;;
70744;SDS011;59284;31.390;34.904;2022-07-29T09:51:39;4.10;;;2.97;;
70744;SDS011;59284;31.390;34.904;2022-07-29T09:54:25;7.85;;;3.35;;
70744;SDS011;59284;31.390;34.904;2022-07-29T09:56:52;8.07;;;3.70;;
70744;SDS011;59284;31.390;34.904;2022-07-29T09:59:19;5.93;;;4.00;;
70744;SDS011;59284;31.390;34.904;2022-07-29T10:01:50;4.87;;;2.90;;
70744;SDS011;59284;31.390;34.904;2022-07-29T10:04:16;6.00;;;3.38;;
70744;SDS011;59284;31.390;34.904;2022-07-29T10:06:56;6.40;;;3.22;;
70744;SDS011;59284;31.390;34.904;2022-07-29T10:09:23;5.60;;;3.40;;
70744;SDS011;59284;31.390;34.904;2022-07-29T10:14:54;6.43;;;3.60;;
70744;SDS011;59284;31.390;34.904;2022-07-29T10:17:20;5.85;;;3.65;;
70744;SDS011;59284;31.390;34.904;2022-07-29T10:19:47;10.52;;;3.47;;
70744;SDS011;59284;31.390;34.904;2022-07-29T10:22:14;8.07;;;3.40;;
70744;SDS011;59284;31.390;34.904;2022-07-29T10:24:40;6.97;;;3.73;;
70744;SDS011;59284;31.390;34.904;2022-07-29T10:27:07;6.85;;;3.63;;
70744;SDS011;59284;31.390;34.904;2022-07-29T10:29:33;8.38;;;3.50;;
70744;SDS011;59284;31.390;34.904;2022-07-29T10:37:28;8.85;;;3.67;;
70744;SDS011;59284;31.390;34.904;2022-07-29T10:43:27;9.85;;;4.30;;
70744;SDS011;59284;31.390;34.904;2022-07-29T10:45:58;7.50;;;4.33;;
70744;SDS011;59284;31.390;34.904;2022-07-29T10:48:34;12.77;;;4.90;;
70744;SDS011;59284;31.390;34.904;2022-07-29T10:51:11;6.90;;;4.78;;
70744;SDS011;59284;31.390;34.904;2022-07-29T10:56:25;9.10;;;4.68;;
70744;SDS011;59284;31.390;34.904;2022-07-29T11:01:50;11.73;;;6.45;;
70744;SDS011;59284;31.390;34.904;2022-07-29T11:05:14;11.75;;;8.57;;
70744;SDS011;59284;31.390;34.904;2022-07-29T11:10:38;17.30;;;11.10;;
70744;SDS011;59284;31.390;34.904;2022-07-29T11:13:08;15.57;;;9.77;;
70744;SDS011;59284;31.390;34.904;2022-07-29T11:15:57;9.55;;;4.95;;
70744;SDS011;59284;31.390;34.904;2022-07-29T11:18:23;9.05;;;5.72;;
70744;SDS011;59284;31.390;34.904;2022-07-29T11:20:52;7.75;;;4.45;;
70744;SDS011;59284;31.390;34.904;2022-07-29T11:23:21;8.00;;;4.87;;
70744;SDS011;59284;31.390;34.904;2022-07-29T11:26:17;8.27;;;4.05;;
70744;SDS011;59284;31.390;34.904;2022-07-29T11:28:53;7.88;;;4.55;;
70744;SDS011;59284;31.390;34.904;2022-07-29T11:42:36;5.80;;;3.40;;
70744;SDS011;59284;31.390;34.904;2022-07-29T11:45:07;5.75;;;3.75;;
70744;SDS011;59284;31.390;34.904;2022-07-29T11:47:57;9.82;;;4.53;;
70744;SDS011;59284;31.390;34.904;2022-07-29T11:53:15;7.93;;;3.65;;
70744;SDS011;59284;31.390;34.904;2022-07-29T11:55:41;6.88;;;4.40;;
70744;SDS011;59284;31.390;34.904;2022-07-29T11:58:09;6.53;;;3.53;;
70744;SDS011;59284;31.390;34.904;2022-07-29T12:00:41;5.78;;;3.28;;
70744;SDS011;59284;31.390;34.904;2022-07-29T12:03:11;11.43;;;4.07;;
70744;SDS011;59284;31.390;34.904;2022-07-29T12:05:42;8.02;;;3.70;;
70744;SDS011;59284;31.390;34.904;2022-07-29T12:08:15;10.25;;;3.30;;
70744;SDS011;59284;31.390;34.904;2022-07-29T12:10:50;9.98;;;3.53;;
70744;SDS011;59284;31.390;34.904;2022-07-29T12:13:17;49.20;;;5.70;;
70744;SDS011;59284;31.390;34.904;2022-07-29T12:15:51;19.20;;;3.67;;
70744;SDS011;59284;31.390;34.904;2022-07-29T12:18:19;10.68;;;3.70;;
70744;SDS011;59284;31.390;34.904;2022-07-29T12:20:47;15.95;;;4.05;;
70744;SDS011;59284;31.390;34.904;2022-07-29T12:23:13;13.63;;;3.40;;
70744;SDS011;59284;31.390;34.904;2022-07-29T12:25:42;8.25;;;4.28;;
70744;SDS011;59284;31.390;34.904;2022-07-29T12:28:10;8.80;;;4.10;;
70744;SDS011;59284;31.390;34.904;2022-07-29T12:30:44;10.88;;;3.95;;
70744;SDS011;59284;31.390;34.904;2022-07-29T12:36:09;12.63;;;4.15;;
70744;SDS011;59284;31.390;34.904;2022-07-29T12:38:35;14.67;;;3.97;;
70744;SDS011;59284;31.390;34.904;2022-07-29T12:41:02;23.90;;;4.30;;
70744;SDS011;59284;31.390;34.904;2022-07-29T12:43:30;9.40;;;4.13;;
70744;SDS011;59284;31.390;34.904;2022-07-29T12:46:22;10.20;;;4.80;;
70744;SDS011;59284;31.390;34.904;2022-07-29T12:49:04;19.92;;;4.82;;
70744;SDS011;59284;31.390;34.904;2022-07-29T12:51:34;11.60;;;4.67;;
70744;SDS011;59284;31.390;34.904;2022-07-29T12:56:31;9.20;;;4.80;;
70744;SDS011;59284;31.390;34.904;2022-07-29T12:58:57;6.80;;;4.93;;
70744;SDS011;59284;31.390;34.904;2022-07-29T13:01:23;8.03;;;4.83;;
70744;SDS011;59284;31.390;34.904;2022-07-29T13:03:55;7.05;;;4.57;;
70744;SDS011;59284;31.390;34.904;2022-07-29T13:06:30;7.90;;;4.65;;
70744;SDS011;59284;31.390;34.904;2022-07-29T13:09:12;13.73;;;5.13;;
70744;SDS011;59284;31.390;34.904;2022-07-29T13:14:12;6.13;;;4.37;;
70744;SDS011;59284;31.390;34.904;2022-07-29T13:17:03;7.93;;;4.75;;
70744;SDS011;59284;31.390;34.904;2022-07-29T13:19:42;9.20;;;4.53;;
70744;SDS011;59284;31.390;34.904;2022-07-29T13:22:13;8.73;;;4.88;;
70744;SDS011;59284;31.390;34.904;2022-07-29T13:24:57;9.68;;;4.68;;
70744;SDS011;59284;31.390;34.904;2022-07-29T13:27:26;9.37;;;4.50;;
70744;SDS011;59284;31.390;34.904;2022-07-29T13:29:55;10.15;;;5.03;;
70744;SDS011;59284;31.390;34.904;2022-07-29T13:32:23;6.75;;;4.32;;
70744;SDS011;59284;31.390;34.904;2022-07-29T13:34:50;9.95;;;4.78;;
70744;SDS011;59284;31.390;34.904;2022-07-29T13:37:16;6.93;;;4.20;;
70744;SDS011;59284;31.390;34.904;2022-07-29T13:39:42;8.63;;;4.38;;
70744;SDS011;59284;31.390;34.904;2022-07-29T13:42:09;5.90;;;4.32;;
70744;SDS011;59284;31.390;34.904;2022-07-29T13:44:40;7.78;;;4.53;;
70744;SDS011;59284;31.390;34.904;2022-07-29T13:47:07;5.77;;;4.23;;
70744;SDS011;59284;31.390;34.904;2022-07-29T13:49:33;7.38;;;4.10;;
70744;SDS011;59284;31.390;34.904;2022-07-29T13:52:03;9.77;;;4.32;;
70744;SDS011;59284;31.390;34.904;2022-07-29T13:54:32;6.75;;;4.00;;
70744;SDS011;59284;31.390;34.904;2022-07-29T13:57:05;10.43;;;4.15;;
70744;SDS011;59284;31.390;34.904;2022-07-29T13:59:31;7.67;;;4.73;;
70744;SDS011;59284;31.390;34.904;2022-07-29T14:01:57;6.15;;;4.53;;
70744;SDS011;59284;31.390;34.904;2022-07-29T14:04:23;9.02;;;4.10;;
70744;SDS011;59284;31.390;34.904;2022-07-29T14:06:49;9.38;;;4.30;;
70744;SDS011;59284;31.390;34.904;2022-07-29T14:09:15;10.97;;;4.37;;
70744;SDS011;59284;31.390;34.904;2022-07-29T14:11:43;11.38;;;3.88;;
70744;SDS011;59284;31.390;34.904;2022-07-29T14:14:09;7.75;;;3.85;;
70744;SDS011;59284;31.390;34.904;2022-07-29T14:16:35;6.35;;;3.50;;
70744;SDS011;59284;31.390;34.904;2022-07-29T14:19:01;5.50;;;3.60;;
70744;SDS011;59284;31.390;34.904;2022-07-29T14:21:27;6.83;;;3.67;;
70744;SDS011;59284;31.390;34.904;2022-07-29T14:23:53;8.52;;;4.00;;
70744;SDS011;59284;31.390;34.904;2022-07-29T14:26:20;10.18;;;4.13;;
70744;SDS011;59284;31.390;34.904;2022-07-29T14:29:05;6.85;;;4.18;;
70744;SDS011;59284;31.390;34.904;2022-07-29T14:31:32;8.47;;;3.83;;
70744;SDS011;59284;31.390;34.904;2022-07-29T14:33:57;4.90;;;3.58;;
70744;SDS011;59284;31.390;34.904;2022-07-29T14:36:23;7.10;;;3.83;;
70744;SDS011;59284;31.390;34.904;2022-07-29T14:38:49;8.53;;;3.83;;
70744;SDS011;59284;31.390;34.904;2022-07-29T14:41:16;5.68;;;3.92;;
70744;SDS011;59284;31.390;34.904;2022-07-29T14:43:46;9.52;;;4.00;;
70744;SDS011;59284;31.390;34.904;2022-07-29T14:46:16;7.87;;;3.97;;
70744;SDS011;59284;31.390;34.904;2022-07-29T14:48:41;7.93;;;4.18;;
70744;SDS011;59284;31.390;34.904;2022-07-29T14:51:08;7.80;;;4.03;;
70744;SDS011;59284;31.390;34.904;2022-07-29T14:53:35;6.97;;;3.53;;
70744;SDS011;59284;31.390;34.904;2022-07-29T14:56:01;9.80;;;4.07;;
70744;SDS011;59284;31.390;34.904;2022-07-29T14:58:27;9.77;;;3.80;;
70744;SDS011;59284;31.390;34.904;2022-07-29T15:00:53;7.35;;;4.30;;
70744;SDS011;59284;31.390;34.904;2022-07-29T15:03:20;5.60;;;3.83;;
70744;SDS011;59284;31.390;34.904;2022-07-29T15:05:46;7.23;;;3.73;;
70744;SDS011;59284;31.390;34.904;2022-07-29T15:08:12;5.68;;;3.97;;
70744;SDS011;59284;31.390;34.904;2022-07-29T15:10:38;8.57;;;4.68;;
70744;SDS011;59284;31.390;34.904;2022-07-29T15:13:09;4.60;;;3.88;;
70744;SDS011;59284;31.390;34.904;2022-07-29T15:15:44;8.77;;;4.40;;
70744;SDS011;59284;31.390;34.904;2022-07-29T15:18:10;6.10;;;4.43;;
70744;SDS011;59284;31.390;34.904;2022-07-29T15:20:36;11.82;;;4.32;;
70744;SDS011;59284;31.390;34.904;2022-07-29T15:23:02;19.55;;;4.75;;
70744;SDS011;59284;31.390;34.904;2022-07-29T15:25:28;7.47;;;4.13;;
70744;SDS011;59284;31.390;34.904;2022-07-29T15:27:54;7.50;;;4.22;;
70744;SDS011;59284;31.390;34.904;2022-07-29T15:30:29;7.57;;;4.35;;
70744;SDS011;59284;31.390;34.904;2022-07-29T15:32:55;6.67;;;4.30;;
70744;SDS011;59284;31.390;34.904;2022-07-29T15:35:22;6.53;;;4.35;;
70744;SDS011;59284;31.390;34.904;2022-07-29T15:37:48;8.50;;;4.45;;
70744;SDS011;59284;31.390;34.904;2022-07-29T15:40:14;6.73;;;5.03;;
70744;SDS011;59284;31.390;34.904;2022-07-29T15:42:40;6.70;;;4.43;;
70744;SDS011;59284;31.390;34.904;2022-07-29T15:45:07;11.48;;;4.80;;
70744;SDS011;59284;31.390;34.904;2022-07-29T15:47:42;6.53;;;4.63;;
70744;SDS011;59284;31.390;34.904;2022-07-29T15:50:08;7.60;;;5.13;;
70744;SDS011;59284;31.390;34.904;2022-07-29T15:52:41;9.00;;;5.40;;
70744;SDS011;59284;31.390;34.904;2022-07-29T15:55:09;11.63;;;6.20;;
70744;SDS011;59284;31.390;34.904;2022-07-29T15:57:37;8.10;;;4.85;;
70744;SDS011;59284;31.390;34.904;2022-07-29T16:00:05;9.33;;;5.37;;
70744;SDS011;59284;31.390;34.904;2022-07-29T16:02:39;11.27;;;5.43;;
70744;SDS011;59284;31.390;34.904;2022-07-29T16:05:07;8.75;;;5.82;;
70744;SDS011;59284;31.390;34.904;2022-07-29T16:07:36;7.88;;;5.28;;
70744;SDS011;59284;31.390;34.904;2022-07-29T16:10:04;10.88;;;5.30;;
70744;SDS011;59284;31.390;34.904;2022-07-29T16:12:33;6.50;;;5.63;;
70744;SDS011;59284;31.390;34.904;2022-07-29T16:14:59;8.00;;;5.40;;
70744;SDS011;59284;31.390;34.904;2022-07-29T16:17:25;8.40;;;5.50;;
70744;SDS011;59284;31.390;34.904;2022-07-29T16:19:56;9.68;;;5.05;;
70744;SDS011;59284;31.390;34.904;2022-07-29T16:22:24;8.33;;;4.40;;
70744;SDS011;59284;31.390;34.904;2022-07-29T16:24:50;7.43;;;4.93;;
70744;SDS011;59284;31.390;34.904;2022-07-29T16:27:15;7.15;;;5.13;;
70744;SDS011;59284;31.390;34.904;2022-07-29T16:29:42;9.57;;;5.20;;
70744;SDS011;59284;31.390;34.904;2022-07-29T16:32:10;9.82;;;5.22;;
70744;SDS011;59284;31.390;34.904;2022-07-29T16:34:37;7.82;;;5.20;;
70744;SDS011;59284;31.390;34.904;2022-07-29T16:37:03;8.50;;;5.97;;
70744;SDS011;59284;31.390;34.904;2022-07-29T16:39:29;6.60;;;5.40;;
70744;SDS011;59284;31.390;34.904;2022-07-29T16:41:55;9.63;;;5.18;;
70744;SDS011;59284;31.390;34.904;2022-07-29T16:44:20;6.97;;;4.93;;
70744;SDS011;59284;31.390;34.904;2022-07-29T16:46:46;8.88;;;4.80;;
70744;SDS011;59284;31.390;34.904;2022-07-29T16:49:12;6.23;;;4.90;;
70744;SDS011;59284;31.390;34.904;2022-07-29T16:51:38;9.85;;;5.13;;
70744;SDS011;59284;31.390;34.904;2022-07-29T16:54:03;7.20;;;5.38;;
70744;SDS011;59284;31.390;34.904;2022-07-29T16:56:32;8.90;;;5.57;;
70744;SDS011;59284;31.390;34.904;2022-07-29T16:58:57;8.63;;;4.72;;
70744;SDS011;59284;31.390;34.904;2022-07-29T17:01:24;6.95;;;5.43;;
70744;SDS011;59284;31.390;34.904;2022-07-29T17:03:57;10.33;;;5.63;;
70744;SDS011;59284;31.390;34.904;2022-07-29T17:06:30;6.20;;;5.18;;
70744;SDS011;59284;31.390;34.904;2022-07-29T17:09:01;7.70;;;5.50;;
70744;SDS011;59284;31.390;34.904;2022-07-29T17:11:28;7.25;;;5.63;;
70744;SDS011;59284;31.390;34.904;2022-07-29T17:13:57;7.72;;;5.72;;
70744;SDS011;59284;31.390;34.904;2022-07-29T17:16:25;11.97;;;5.40;;
70744;SDS011;59284;31.390;34.904;2022-07-29T17:18:52;9.27;;;5.60;;
70744;SDS011;59284;31.390;34.904;2022-07-29T17:21:19;12.68;;;6.03;;
70744;SDS011;59284;31.390;34.904;2022-07-29T17:23:46;8.48;;;6.25;;
70744;SDS011;59284;31.390;34.904;2022-07-29T17:26:13;14.75;;;7.32;;
70744;SDS011;59284;31.390;34.904;2022-07-29T17:28:39;9.17;;;6.77;;
70744;SDS011;59284;31.390;34.904;2022-07-29T17:31:05;8.73;;;6.78;;
70744;SDS011;59284;31.390;34.904;2022-07-29T17:33:31;9.35;;;7.35;;
70744;SDS011;59284;31.390;34.904;2022-07-29T17:35:57;11.82;;;7.70;;